OTBH/IUD METAR and TAF weather

Enter ICAO airport designator
Station Type Date Time Source
OTBH METAR 2019/04/23 03:56 UTC NOAA

OTBH 230356Z 3502025KT 9000 HZ BKN180 22/10 A2996 RMK AO2A PK WND 33033/17 SLPNO $


Station Type Date Time Source
OTBH Decoded METAR 2019/04/23 03:56 UTC NOAA

Station name not available
Apr 22, 2019 - 11:56 PM EDT / 2019.04.23 0356 UTC
Visibility: 5 mile(s):0
Sky conditions: mostly cloudy
Weather: haze
Temperature: 71 F (22 C)
Dew Point: 50 F (10 C)
Relative Humidity: 46%
Pressure (altimeter): 29.96 in. Hg (1014 hPa)
ob: OTBH 230356Z 3502025KT 9000 HZ BKN180 22/10 A2996 RMK AO2A PK WND 33033/17 SLPNO
cycle: 4

Station Type Date Time Source
OTBH TAF 2019/04/23 00:48 UTC NOAA

TAF TAF OTBH 230000Z 2300/2406 34015G25KT 8000 HZ SCT120 QNH2985INS
TEMPO 2300/2303 35025G35KT 6000 BLDU 520005
BECMG 2302/2303 34015G25KT 8000 HZ SCT140 QNH2992INS
BECMG 2318/2319 33012G18KT 9000 HZ SKC QNH2999INS
BECMG 2403/2404 33015G25KT 8000 HZ SKC QNH3004INS TX27/2310Z TN19/2302Z

Example: see airport list